Time;durP1;ratioP1;P1;durP2;ratioP2;P2;SDS_P1;SDS_P2;PMS_P1;PMS_P2;Temp;Humidity;BMP_temperature;BMP_pressure;BME280_temperature;BME280_humidity;BME280_pressure;Samples;Min_cycle;Max_cycle;Signal;HPM_P1;HPM_P2
2020/12/23 00:01:43;;;;;;;88.65;38.80;;;;;;;8.04;100.00;101031.00;5013066;28;20037;-87
2020/12/23 00:04:09;;;;;;;93.00;40.30;;;;;;;8.07;100.00;101017.38;5003260;28;20064;-86
2020/12/23 00:06:35;;;;;;;91.05;40.55;;;;;;;8.09;100.00;101015.41;5016098;28;20033;-86
2020/12/23 00:09:05;;;;;;;101.97;43.85;;;;;;;8.05;100.00;101016.66;5018734;28;20053;-86
2020/12/23 00:11:31;;;;;;;94.40;43.40;;;;;;;8.06;100.00;101003.16;5011382;28;20431;-87
2020/12/23 00:13:57;;;;;;;105.03;45.78;;;;;;;8.06;100.00;101005.84;5018489;28;20042;-86
2020/12/23 00:16:22;;;;;;;100.20;44.90;;;;;;;8.05;100.00;101008.63;5022639;28;20047;-85
2020/12/23 00:18:47;;;;;;;101.95;42.90;;;;;;;8.01;100.00;101012.59;5017878;28;20067;-85
2020/12/23 00:21:13;;;;;;;111.07;44.40;;;;;;;8.03;100.00;101002.59;5000575;28;20049;-86
2020/12/23 00:23:38;;;;;;;96.63;42.60;;;;;;;8.02;100.00;101009.75;5014501;28;20049;-86
2020/12/23 00:26:08;;;;;;;110.22;45.10;;;;;;;8.06;100.00;101002.31;5018694;28;20161;-85
2020/12/23 00:28:33;;;;;;;103.22;44.97;;;;;;;8.06;100.00;101005.00;5021764;28;20064;-85
2020/12/23 00:30:59;;;;;;;101.53;44.33;;;;;;;8.05;100.00;100998.78;5017617;28;20042;-84
2020/12/23 00:33:24;;;;;;;103.43;45.53;;;;;;;8.04;100.00;101002.44;5017808;28;20042;-85
2020/12/23 00:35:49;;;;;;;120.25;49.20;;;;;;;8.05;100.00;101001.44;5018817;28;20053;-87
2020/12/23 00:38:15;;;;;;;114.53;47.03;;;;;;;8.06;100.00;100995.13;5018857;28;20037;-86
2020/12/23 00:40:40;;;;;;;133.98;49.88;;;;;;;8.07;100.00;101001.31;5019791;28;20448;-85
2020/12/23 00:43:05;;;;;;;112.13;48.22;;;;;;;8.08;100.00;100998.50;5005022;28;20046;-86
2020/12/23 00:45:31;;;;;;;107.32;49.63;;;;;;;8.09;100.00;101002.88;5017868;28;20291;-86
2020/12/23 00:47:56;;;;;;;114.03;48.88;;;;;;;8.08;100.00;101013.69;5001071;28;20453;-85
2020/12/23 00:50:21;;;;;;;116.60;48.08;;;;;;;8.06;100.00;101032.56;5002659;28;20100;-86
2020/12/23 00:52:47;;;;;;;115.18;47.50;;;;;;;8.06;100.00;101029.06;5017217;28;20268;-85
2020/12/23 00:55:13;;;;;;;118.00;49.78;;;;;;;8.07;100.00;101015.53;4985898;28;20092;-87
2020/12/23 00:57:38;;;;;;;104.32;47.15;;;;;;;8.07;100.00;101017.38;4990738;28;20052;-86
2020/12/23 01:00:05;;;;;;;115.80;48.75;;;;;;;8.07;100.00;101015.53;5006136;28;20049;-85
2020/12/23 01:02:31;;;;;;;123.90;51.13;;;;;;;8.09;100.00;101015.41;5015564;28;20053;-85
2020/12/23 01:04:56;;;;;;;119.95;51.88;;;;;;;8.06;100.00;101021.03;5009278;28;20132;-85
2020/12/23 01:07:21;;;;;;;125.47;51.03;;;;;;;8.06;100.00;101007.66;5002821;28;20064;-86
2020/12/23 01:09:47;;;;;;;128.77;53.58;;;;;;;8.06;100.00;101008.50;4991851;28;20070;-86
2020/12/23 01:12:12;;;;;;;127.88;54.22;;;;;;;8.05;100.00;101004.13;4996474;28;20041;-86
2020/12/23 01:14:37;;;;;;;129.75;51.95;;;;;;;8.04;100.00;101005.13;4998376;28;20136;-85
2020/12/23 01:17:03;;;;;;;130.35;51.00;;;;;;;8.04;100.00;100996.25;5004565;28;20072;-84
2020/12/23 01:19:28;;;;;;;132.32;55.25;;;;;;;8.05;100.00;100995.28;5001556;28;20144;-86
2020/12/23 01:21:53;;;;;;;145.15;55.83;;;;;;;8.03;100.00;100995.44;4997615;28;20479;-85
2020/12/23 01:24:19;;;;;;;140.57;57.25;;;;;;;8.05;100.00;100995.28;5011350;28;20037;-84
2020/12/23 01:26:44;;;;;;;130.65;54.20;;;;;;;8.05;100.00;100997.94;5007236;28;20076;-87
2020/12/23 01:29:10;;;;;;;141.18;55.03;;;;;;;8.03;100.00;101005.28;4987707;28;20394;-85
2020/12/23 01:31:35;;;;;;;128.40;54.50;;;;;;;8.01;100.00;100997.38;5026427;28;20049;-85
2020/12/23 01:34:00;;;;;;;135.50;56.15;;;;;;;8.04;100.00;101004.28;4992799;28;20050;-85
2020/12/23 01:36:26;;;;;;;131.15;54.05;;;;;;;8.04;100.00;101004.28;4996057;28;20120;-85
2020/12/23 01:38:51;;;;;;;133.80;54.13;;;;;;;8.04;100.00;101005.13;4994906;28;20129;-85
2020/12/23 01:41:16;;;;;;;122.03;53.20;;;;;;;8.04;100.00;101013.13;5011997;28;20037;-85
2020/12/23 01:43:51;;;;;;;125.00;53.47;;;;;;;8.05;100.00;101017.50;5012436;28;20056;-86
2020/12/23 01:46:17;;;;;;;127.78;53.92;;;;;;;8.08;100.00;101013.69;5007310;28;20038;-85
2020/12/23 01:48:42;;;;;;;144.60;56.35;;;;;;;8.10;100.00;101011.72;5013677;28;20037;-85
2020/12/23 01:51:08;;;;;;;125.05;52.40;;;;;;;8.08;100.00;101011.00;5007078;28;20045;-85
2020/12/23 01:53:33;;;;;;;135.13;54.25;;;;;;;8.07;100.00;101002.16;5009027;28;20292;-84
2020/12/23 01:56:01;;;;;;;172.25;67.75;;;;;;;8.06;100.00;101003.16;5001038;28;20056;-85
2020/12/23 01:58:26;;;;;;;161.43;87.57;;;;;;;8.07;100.00;100995.97;5007005;28;20050;-84
2020/12/23 02:00:52;;;;;;;135.32;54.10;;;;;;;8.08;100.00;100982.44;5004860;28;20049;-87
2020/12/23 02:03:19;;;;;;;122.90;51.03;;;;;;;8.06;100.00;100989.78;4991775;28;20083;-85
2020/12/23 02:05:45;;;;;;;134.30;53.42;;;;;;;8.06;100.00;100978.28;5021210;28;20041;-85
2020/12/23 02:08:10;;;;;;;124.07;51.65;;;;;;;8.06;100.00;100980.94;5023681;28;20095;-86
2020/12/23 02:10:37;;;;;;;126.07;52.20;;;;;;;8.07;100.00;100986.13;5020916;28;20038;-85
2020/12/23 02:13:02;;;;;;;135.43;53.78;;;;;;;8.08;100.00;100987.78;5002760;28;20398;-86
2020/12/23 02:15:28;;;;;;;123.97;52.22;;;;;;;8.10;100.00;100987.66;5017353;28;20041;-86
2020/12/23 02:17:54;;;;;;;119.88;51.67;;;;;;;8.09;100.00;100989.50;5020847;28;20033;-85
2020/12/23 02:20:20;;;;;;;130.18;54.08;;;;;;;8.10;100.00;100980.50;5018067;28;20042;-85
2020/12/23 02:22:49;;;;;;;139.98;53.22;;;;;;;8.11;100.00;100968.84;5019524;28;20056;-85
2020/12/23 02:25:15;;;;;;;129.27;51.85;;;;;;;8.11;100.00;100968.84;4983470;28;20096;-86
2020/12/23 02:27:41;;;;;;;142.65;52.22;;;;;;;8.14;100.00;100965.00;5019893;28;20049;-85
2020/12/23 02:30:08;;;;;;;136.85;52.55;;;;;;;8.13;100.00;100952.63;5001488;28;20052;-86
2020/12/23 02:32:34;;;;;;;136.02;51.55;;;;;;;8.12;100.00;100954.47;5007432;28;20486;-86
2020/12/23 02:34:59;;;;;;;148.57;55.03;;;;;;;8.14;100.00;100951.63;5004261;28;20048;-86
2020/12/23 02:37:25;;;;;;;147.25;51.30;;;;;;;8.15;100.00;100950.66;5007115;28;20542;-85
2020/12/23 02:39:53;;;;;;;141.25;52.10;;;;;;;8.15;100.00;100939.97;5016592;28;20049;-86
2020/12/23 02:42:20;;;;;;;149.75;52.45;;;;;;;8.15;100.00;100945.31;5016153;28;20270;-85
2020/12/23 02:44:47;;;;;;;145.80;51.53;;;;;;;8.18;100.00;100947.69;5005125;28;20048;-85
2020/12/23 02:47:14;;;;;;;146.25;51.85;;;;;;;8.18;100.00;100939.69;5023924;28;20099;-85
2020/12/23 02:49:40;;;;;;;138.15;49.50;;;;;;;8.17;100.00;100930.00;5013236;28;20445;-86
2020/12/23 02:52:06;;;;;;;154.90;52.58;;;;;;;8.18;100.00;100929.00;5002191;28;20045;-86
2020/12/23 02:54:32;;;;;;;139.35;50.78;;;;;;;8.18;100.00;100929.00;5008666;28;20061;-86
2020/12/23 02:56:57;;;;;;;150.30;51.95;;;;;;;8.18;100.00;100926.31;5027377;28;20065;-87
2020/12/23 02:59:22;;;;;;;133.75;48.17;;;;;;;8.16;100.00;100914.91;5022527;28;20034;-86
2020/12/23 03:01:48;;;;;;;147.52;49.67;;;;;;;8.16;100.00;100898.88;5020350;28;20059;-86
2020/12/23 03:04:13;;;;;;;144.15;51.00;;;;;;;8.16;100.00;100909.56;5004617;28;20049;-87
2020/12/23 03:06:39;;;;;;;154.85;49.47;;;;;;;8.19;100.00;100913.78;5004759;28;20037;-86
2020/12/23 03:09:07;;;;;;;147.73;49.78;;;;;;;8.18;100.00;100915.63;5023666;28;20049;-86
2020/12/23 03:11:33;;;;;;;145.73;50.30;;;;;;;8.19;100.00;100903.09;5020263;28;20526;-86
2020/12/23 03:13:59;;;;;;;155.57;50.90;;;;;;;8.19;100.00;100893.25;5018651;28;20180;-86
2020/12/23 03:16:25;;;;;;;144.40;47.08;;;;;;;8.17;100.00;100887.22;5023358;28;20105;-86
2020/12/23 03:18:50;;;;;;;155.73;47.30;;;;;;;8.19;100.00;100897.75;5022190;28;20050;-86
2020/12/23 03:21:16;;;;;;;146.00;48.35;;;;;;;8.20;100.00;100900.28;5022939;28;20482;-86
2020/12/23 03:23:41;;;;;;;159.15;49.53;;;;;;;8.20;100.00;100900.28;5018531;28;20068;-86
2020/12/23 03:26:06;;;;;;;151.90;48.50;;;;;;;8.22;100.00;100889.44;5018986;28;20049;-87
2020/12/23 03:28:33;;;;;;;153.27;49.47;;;;;;;8.23;100.00;100889.31;5017761;28;20045;-85
2020/12/23 03:30:59;;;;;;;159.93;47.53;;;;;;;8.22;100.00;100898.28;5014699;28;20132;-85
2020/12/23 03:33:25;;;;;;;155.85;49.17;;;;;;;8.24;100.00;100890.97;5011319;28;20099;-86
2020/12/23 03:35:50;;;;;;;175.63;51.08;;;;;;;8.24;100.00;100893.66;5001006;28;20409;-86
2020/12/23 03:38:16;;;;;;;191.38;51.92;;;;;;;8.26;100.00;100894.34;5023981;28;20128;-86
2020/12/23 03:40:41;;;;;;;185.63;52.90;;;;;;;8.27;100.00;100889.84;5011963;28;20045;-86
2020/12/23 03:43:07;;;;;;;212.73;56.55;;;;;;;8.27;100.00;100888.00;4990205;28;20419;-87
2020/12/23 03:45:32;;;;;;;225.10;58.05;;;;;;;8.28;100.00;100888.84;5020029;28;20087;-86
2020/12/23 03:47:58;;;;;;;244.75;59.05;;;;;;;8.30;100.00;100900.25;5023196;28;20045;-86
2020/12/23 03:50:23;;;;;;;273.67;60.33;;;;;;;8.32;100.00;100903.63;4986496;28;20045;-87
2020/12/23 03:52:49;;;;;;;297.42;64.22;;;;;;;8.32;100.00;100904.47;4995860;28;20092;-86
2020/12/23 03:55:14;;;;;;;313.30;65.97;;;;;;;8.33;100.00;100900.78;5014503;28;20236;-85
2020/12/23 03:57:40;;;;;;;330.23;63.75;;;;;;;8.32;100.00;100888.41;4979018;28;20045;-86
2020/12/23 04:00:07;;;;;;;361.27;66.95;;;;;;;8.33;100.00;100887.41;5009395;28;20479;-85
2020/12/23 04:02:33;;;;;;;423.35;71.57;;;;;;;8.34;100.00;100883.78;4989917;28;20133;-84
2020/12/23 04:04:58;;;;;;;506.23;79.65;;;;;;;8.33;100.00;100879.38;5013166;28;20125;-85
2020/12/23 04:07:24;;;;;;;478.05;70.65;;;;;;;8.33;100.00;100879.38;5022167;28;20375;-87
2020/12/23 04:09:49;;;;;;;510.88;75.13;;;;;;;8.35;100.00;100866.72;5016797;28;20522;-86
2020/12/23 04:12:15;;;;;;;468.88;74.63;;;;;;;8.35;100.00;100861.38;5023749;28;20460;-86
2020/12/23 04:14:40;;;;;;;527.55;77.88;;;;;;;8.38;100.00;100872.78;5001268;28;20061;-86
2020/12/23 04:17:06;;;;;;;615.92;87.68;;;;;;;8.36;100.00;100863.06;5001340;28;20100;-86
2020/12/23 04:19:31;;;;;;;552.72;82.07;;;;;;;8.37;100.00;100871.91;4991371;28;20102;-86
2020/12/23 04:21:56;;;;;;;560.90;74.10;;;;;;;8.38;100.00;100870.09;5017183;28;20103;-87
2020/12/23 04:24:22;;;;;;;609.28;86.13;;;;;;;8.39;100.00;100871.81;5011961;28;20050;-86
2020/12/23 04:26:47;;;;;;;580.97;85.00;;;;;;;8.41;100.00;100876.03;5009950;28;20065;-86
2020/12/23 04:29:12;;;;;;;630.38;89.75;;;;;;;8.42;100.00;100866.16;5010201;28;20506;-87
2020/12/23 04:31:38;;;;;;;587.28;83.38;;;;;;;8.42;100.00;100867.00;5005625;28;20069;-87
2020/12/23 04:34:03;;;;;;;609.13;86.13;;;;;;;8.43;100.00;100874.06;4991558;28;20061;-87
2020/12/23 04:36:29;;;;;;;649.75;89.10;;;;;;;8.43;100.00;100865.16;5014163;28;20053;-87
2020/12/23 04:38:54;;;;;;;627.10;83.93;;;;;;;8.43;100.00;100859.81;5014352;28;20076;-86
2020/12/23 04:41:20;;;;;;;692.28;94.05;;;;;;;8.43;100.00;100860.69;5025114;28;20490;-89
2020/12/23 04:43:46;;;;;;;681.08;91.90;;;;;;;8.44;100.00;100869.53;4991726;28;20519;-87
2020/12/23 04:46:16;;;;;;;627.85;93.03;;;;;;;8.46;100.00;100859.50;5007190;28;20084;-88
2020/12/23 04:48:43;;;;;;;670.67;92.88;;;;;;;8.47;100.00;100867.41;5022502;28;20486;-88
2020/12/23 04:51:10;;;;;;;613.60;88.65;;;;;;;8.47;100.00;100858.53;5016579;28;20045;-88
2020/12/23 04:53:36;;;;;;;624.47;92.22;;;;;;;8.49;100.00;100856.56;5015505;28;20077;-85
2020/12/23 04:56:01;;;;;;;639.33;92.15;;;;;;;8.52;100.00;100862.44;5011426;28;20076;-86
2020/12/23 04:58:27;;;;;;;608.45;86.38;;;;;;;8.54;100.00;100864.97;5013393;28;20038;-86
2020/12/23 05:00:53;;;;;;;628.72;92.75;;;;;;;8.55;100.00;100872.84;5016574;28;20075;-87
2020/12/23 05:03:18;;;;;;;666.83;94.40;;;;;;;8.58;100.00;100866.38;5015283;28;20056;-88
2020/12/23 05:05:43;;;;;;;666.58;96.07;;;;;;;8.58;100.00;100866.38;5016567;28;20045;-87
2020/12/23 05:08:09;;;;;;;741.00;102.88;;;;;;;8.60;100.00;100859.00;4998853;28;20045;-88
2020/12/23 05:10:34;;;;;;;756.47;101.28;;;;;;;8.60;100.00;100850.97;4995724;28;20042;-86
2020/12/23 05:13:00;;;;;;;723.65;97.93;;;;;;;8.62;100.00;100849.00;4996832;28;20045;-86
2020/12/23 05:15:25;;;;;;;725.80;101.47;;;;;;;8.63;100.00;100842.69;5017465;28;20407;-89
2020/12/23 05:17:51;;;;;;;692.13;100.63;;;;;;;8.64;100.00;100831.00;5011327;28;20139;-86
2020/12/23 05:20:17;;;;;;;693.88;99.25;;;;;;;8.66;100.00;100817.44;5007564;28;20050;-86
2020/12/23 05:22:51;;;;;;;638.92;96.38;;;;;;;8.69;100.00;100815.34;5020846;28;20048;-87
2020/12/23 05:25:17;;;;;;;632.92;91.22;;;;;;;8.71;100.00;100815.16;5005744;28;20092;-86
2020/12/23 05:27:43;;;;;;;592.90;87.18;;;;;;;8.72;100.00;100812.34;5019832;28;20057;-87
2020/12/23 05:30:10;;;;;;;564.03;84.43;;;;;;;8.73;100.00;100806.00;5006569;28;20046;-85
2020/12/23 05:32:40;;;;;;;582.97;86.50;;;;;;;8.74;100.00;100806.84;5016650;28;20046;-87
2020/12/23 05:35:06;;;;;;;550.13;82.95;;;;;;;8.75;100.00;100796.00;5024040;28;20042;-89
2020/12/23 05:37:32;;;;;;;554.03;85.18;;;;;;;8.78;100.00;100797.53;5015413;28;20402;-87
2020/12/23 05:39:57;;;;;;;473.65;79.07;;;;;;;8.80;100.00;100808.91;5022929;28;20133;-87
2020/12/23 05:42:23;;;;;;;480.95;79.68;;;;;;;8.81;100.00;100803.41;5009349;28;20056;-89
2020/12/23 05:44:55;;;;;;;473.40;78.60;;;;;;;8.82;100.00;100796.22;5002344;28;20049;-86
2020/12/23 05:47:24;;;;;;;499.38;78.78;;;;;;;8.86;100.00;100794.94;5019556;28;20103;-88
2020/12/23 05:49:52;;;;;;;438.77;76.82;;;;;;;8.88;100.00;100800.13;5020234;28;20063;-86
2020/12/23 05:52:22;;;;;;;394.83;71.72;;;;;;;8.89;100.00;100791.09;5015042;28;20041;-85
2020/12/23 05:54:52;;;;;;;343.42;62.65;;;;;;;8.90;100.00;100782.06;5010833;28;20049;-87
2020/12/23 05:57:19;;;;;;;369.20;70.18;;;;;;;8.92;100.00;100791.63;4997595;28;20084;-85
2020/12/23 05:59:45;;;;;;;327.20;63.55;;;;;;;8.95;100.00;100785.13;5004045;28;20084;-87
2020/12/23 06:02:14;;;;;;;348.60;68.40;;;;;;;8.99;100.00;100789.19;5023960;28;20041;-86
2020/12/23 06:04:43;;;;;;;344.27;66.97;;;;;;;9.00;100.00;100788.16;5014598;28;20041;-87
2020/12/23 06:07:10;;;;;;;341.10;66.45;;;;;;;9.01;100.00;100797.91;5001378;28;20056;-88
2020/12/23 06:09:47;;;;;;;331.05;63.15;;;;;;;9.02;100.00;100788.88;4995251;28;20061;-86
2020/12/23 06:12:18;;;;;;;372.52;70.80;;;;;;;9.03;100.00;100788.72;5019820;28;20042;-86
2020/12/23 06:14:58;;;;;;;345.30;69.70;;;;;;;9.05;100.00;100777.84;5001351;28;20042;-87
2020/12/23 06:17:25;;;;;;;398.98;74.22;;;;;;;9.06;100.00;100773.34;5018400;28;20038;-87
2020/12/23 06:19:54;;;;;;;383.50;74.25;;;;;;;9.05;100.00;100783.19;5021286;28;20030;-87
2020/12/23 06:22:23;;;;;;;389.58;71.53;;;;;;;9.08;100.00;100777.53;5001074;28;20080;-87
2020/12/23 06:24:48;;;;;;;367.40;72.20;;;;;;;9.08;100.00;100774.03;5019019;28;20417;-87
2020/12/23 06:27:14;;;;;;;382.52;74.00;;;;;;;9.10;100.00;100785.44;5013984;28;20338;-87
2020/12/23 06:29:43;;;;;;;362.88;70.75;;;;;;;9.10;100.00;100778.22;5026243;28;20375;-86
2020/12/23 06:32:09;;;;;;;;;;;;;;;9.14;100.00;100771.56;5016513;28;20041;-87
2020/12/23 06:34:38;;;;;;;323.55;67.35;;;;;;;9.09;100.00;100773.88;5016777;28;20246;-87
2020/12/23 06:37:17;;;;;;;324.25;70.68;;;;;;;9.10;100.00;100775.56;5010248;28;20093;-85
2020/12/23 06:39:44;;;;;;;373.23;72.47;;;;;;;9.15;100.00;100764.38;5033080;28;20030;-87
2020/12/23 06:42:09;;;;;;;339.60;71.32;;;;;;;9.16;100.00;100763.38;5022068;28;20049;-86
2020/12/23 06:44:43;;;;;;;356.73;71.75;;;;;;;9.18;100.00;100756.06;5023821;28;20132;-87
2020/12/23 06:47:20;;;;;;;383.58;75.03;;;;;;;9.19;100.00;100742.50;5014724;28;20573;-87
2020/12/23 06:49:50;;;;;;;342.58;69.35;;;;;;;9.19;100.00;100745.16;5022925;28;20050;-87
2020/12/23 06:52:22;;;;;;;364.88;69.38;;;;;;;9.21;100.00;100737.81;5010194;28;20313;-87
2020/12/23 06:55:09;;;;;;;324.30;66.47;;;;;;;9.22;100.00;100728.78;5009783;28;20057;-86
2020/12/23 06:57:34;;;;;;;361.73;66.38;;;;;;;9.23;100.00;100734.97;4995783;28;20045;-90
2020/12/23 07:00:00;;;;;;;335.73;64.30;;;;;;;9.23;100.00;100735.81;4999165;28;20040;-87
2020/12/23 07:02:27;;;;;;;392.52;72.93;;;;;;;9.24;100.00;100718.75;4993891;28;20096;-87
2020/12/23 07:04:54;;;;;;;340.67;66.45;;;;;;;9.26;100.00;100724.81;5021170;28;20080;-86
2020/12/23 07:07:38;;;;;;;330.70;66.18;;;;;;;9.25;100.00;100712.41;5021154;28;20837;-87
2020/12/23 07:10:16;;;;;;;309.73;66.70;;;;;;;9.26;100.00;100708.75;4987970;28;20049;-86
2020/12/23 07:13:06;;;;;;;374.83;69.13;;;;;;;9.27;100.00;100702.38;5019156;28;20136;-87
2020/12/23 07:15:36;;;;;;;308.95;64.18;;;;;;;9.29;100.00;100701.38;5007385;28;20041;-86
2020/12/23 07:18:08;;;;;;;340.85;66.43;;;;;;;9.32;100.00;100695.69;5007455;28;20435;-88
2020/12/23 07:20:56;;;;;;;356.80;69.90;;;;;;;9.34;100.00;100696.38;5026435;28;20034;-87
2020/12/23 07:23:22;;;;;;;314.25;65.28;;;;;;;9.36;100.00;100702.44;5022072;28;20075;-86
2020/12/23 07:25:56;;;;;;;301.90;66.97;;;;;;;9.37;100.00;100701.44;5024308;28;20052;-86
2020/12/23 07:28:39;;;;;;;326.65;67.38;;;;;;;9.39;100.00;100702.13;5022770;28;20383;-86
2020/12/23 07:31:06;;;;;;;266.40;64.82;;;;;;;9.41;100.00;100700.13;5039893;28;20081;-86
2020/12/23 07:33:33;;;;;;;286.95;64.90;;;;;;;9.43;100.00;100701.63;5024885;28;20038;-86
2020/12/23 07:36:00;;;;;;;272.38;65.72;;;;;;;9.45;100.00;100702.31;5018472;28;20100;-86
2020/12/23 07:38:28;;;;;;;295.30;65.10;;;;;;;9.48;100.00;100698.47;5019249;28;20053;-86
2020/12/23 07:40:54;;;;;;;253.95;59.05;;;;;;;9.50;100.00;100691.13;5021788;28;20049;-87
2020/12/23 07:43:26;;;;;;;256.42;61.05;;;;;;;9.56;100.00;100703.06;5000332;28;20401;-86
2020/12/23 07:45:53;;;;;;;208.70;53.45;;;;;;;9.58;100.00;100696.53;5013046;28;20563;-86
2020/12/23 07:48:20;;;;;;;209.50;52.72;;;;;;;9.63;100.00;100704.91;5008608;28;20125;-86
2020/12/23 07:50:48;;;;;;;219.95;56.33;;;;;;;9.65;100.00;100702.09;5020998;28;20045;-86
2020/12/23 07:53:16;;;;;;;188.05;49.50;;;;;;;9.68;100.00;100702.59;5010991;28;20117;-85
2020/12/23 07:55:43;;;;;;;160.13;46.17;;;;;;;9.73;100.00;100690.56;5013423;28;20058;-86
2020/12/23 07:58:09;;;;;;;160.77;47.17;;;;;;;9.77;100.00;100694.59;5023417;28;20053;-86
2020/12/23 08:00:39;;;;;;;171.38;45.33;;;;;;;9.81;100.00;100696.81;5020494;28;20026;-86
2020/12/23 08:03:06;;;;;;;155.63;44.58;;;;;;;9.84;100.00;100692.94;5024584;28;20045;-86
2020/12/23 08:05:32;;;;;;;150.93;43.28;;;;;;;9.88;100.00;100688.94;5018725;28;20065;-86
2020/12/23 08:07:57;;;;;;;155.93;47.83;;;;;;;9.92;100.00;100680.41;5020073;28;20501;-86
2020/12/23 08:10:22;;;;;;;140.10;42.35;;;;;;;9.98;100.00;100684.28;5020580;28;20051;-86
2020/12/23 08:12:56;;;;;;;128.32;43.40;;;;;;;10.04;100.00;100677.41;5001625;28;20034;-87
2020/12/23 08:15:22;;;;;;;133.95;43.00;;;;;;;10.09;100.00;100669.72;5009252;28;20107;-86
2020/12/23 08:18:03;;;;;;;121.15;39.38;;;;;;;10.13;100.00;100666.56;5017129;28;20425;-87
2020/12/23 08:20:29;;;;;;;119.75;39.97;;;;;;;10.19;100.00;100677.66;5021846;28;20060;-87
2020/12/23 08:22:55;;;;;;;95.80;37.10;;;;;;;10.21;100.00;100665.72;5021718;28;20033;-87
2020/12/23 08:25:22;;;;;;;90.75;35.08;;;;;;;10.27;100.00;100672.31;5004993;28;20070;-87
2020/12/23 08:27:51;;;;;;;90.43;36.05;;;;;;;10.33;100.00;100666.31;5019992;28;20037;-86
2020/12/23 08:30:24;;;;;;;86.32;32.55;;;;;;;10.38;100.00;100666.63;5017915;28;20057;-87
2020/12/23 08:32:57;;;;;;;80.90;34.25;;;;;;;10.38;100.00;100656.72;5002685;28;20045;-86
2020/12/23 08:35:31;;;;;;;72.22;29.55;;;;;;;10.44;100.00;100657.06;5033798;28;20041;-87
2020/12/23 08:37:57;;;;;;;70.40;29.02;;;;;;;10.44;100.00;100657.91;5025263;28;20498;-87
2020/12/23 08:40:23;;;;;;;61.92;28.98;;;;;;;10.47;100.00;100660.28;5018440;28;20053;-85
2020/12/23 08:42:58;;;;;;;59.33;28.23;;;;;;;10.50;100.00;100662.63;5014514;28;20065;-85
2020/12/23 08:45:26;;;;;;;60.35;24.73;;;;;;;10.51;100.00;100653.56;5020579;28;20038;-86
2020/12/23 08:47:53;;;;;;;54.83;25.63;;;;;;;10.55;100.00;100660.25;5012691;28;20508;-87
2020/12/23 08:50:20;;;;;;;52.40;24.05;;;;;;;10.55;100.00;100648.69;5018848;28;20049;-86
2020/12/23 08:52:50;;;;;;;60.40;25.77;;;;;;;10.57;100.00;100650.22;5016565;28;20041;-85
2020/12/23 08:55:18;;;;;;;52.92;24.70;;;;;;;10.58;100.00;100653.72;5020652;28;20065;-87
2020/12/23 08:57:45;;;;;;;45.60;22.25;;;;;;;10.59;100.00;100653.56;5018216;28;20514;-85
2020/12/23 09:00:21;;;;;;;46.33;21.98;;;;;;;10.60;100.00;100647.19;5014548;28;20050;-86
2020/12/23 09:02:48;;;;;;;42.00;21.75;;;;;;;10.63;100.00;100655.91;5011802;28;20106;-86
2020/12/23 09:05:30;;;;;;;43.72;22.60;;;;;;;10.64;100.00;100652.22;5013819;28;20042;-85
2020/12/23 09:08:06;;;;;;;45.55;23.02;;;;;;;10.66;100.00;100644.84;5018235;28;20495;-86
2020/12/23 09:10:34;;;;;;;39.05;19.02;;;;;;;10.65;100.00;100640.50;5011144;28;20140;-85
2020/12/23 09:13:12;;;;;;;40.70;19.15;;;;;;;10.67;100.00;100641.16;5020715;28;20030;-85
2020/12/23 09:15:39;;;;;;;36.35;18.15;;;;;;;10.67;100.00;100643.84;5035389;28;20045;-87
2020/12/23 09:18:05;;;;;;;30.95;18.15;;;;;;;10.68;100.00;100645.53;5016794;28;20060;-86
2020/12/23 09:20:30;;;;;;;35.25;19.05;;;;;;;10.71;100.00;100647.88;5020540;28;20406;-87
2020/12/23 09:22:56;;;;;;;35.15;18.67;;;;;;;10.73;100.00;100637.78;4994145;28;20732;-85
2020/12/23 09:25:28;;;;;;;31.45;17.23;;;;;;;10.73;100.00;100638.66;5018425;28;20394;-84
2020/12/23 09:28:14;;;;;;;30.85;17.02;;;;;;;10.74;100.00;100663.63;5012560;28;20049;-87
2020/12/23 09:30:51;;;;;;;30.90;16.92;;;;;;;10.74;100.00;100636.78;5016352;28;20133;-89
2020/12/23 09:33:22;;;;;;;30.15;15.98;;;;;;;10.75;100.00;100633.09;5001012;28;20045;-85
2020/12/23 09:35:52;;;;;;;31.33;18.02;;;;;;;10.76;100.00;100634.75;5035118;28;20038;-90
2020/12/23 09:38:27;;;;;;;26.35;15.02;;;;;;;10.75;100.00;100641.97;5015306;28;20045;-85
2020/12/23 09:40:57;;;;;;;25.95;15.50;;;;;;;10.76;100.00;100648.19;5012087;28;20038;-85
2020/12/23 09:43:28;;;;;;;26.02;14.88;;;;;;;10.76;100.00;100641.00;4999202;28;20057;-86
2020/12/23 09:45:57;;;;;;;26.30;15.52;;;;;;;10.77;100.00;100641.81;5016380;28;20065;-91
2020/12/23 09:48:24;;;;;;;20.48;13.52;;;;;;;10.77;100.00;100645.34;5024866;28;20041;-86
2020/12/23 09:50:52;;;;;;;21.42;13.52;;;;;;;10.79;100.00;100646.03;4994229;28;20049;-90
2020/12/23 09:53:19;;;;;;;19.38;12.82;;;;;;;10.80;100.00;100638.81;5009401;28;20040;-89
2020/12/23 09:55:45;;;;;;;20.23;12.70;;;;;;;10.79;100.00;100639.81;5028149;28;20063;-86
2020/12/23 09:58:14;;;;;;;18.30;11.52;;;;;;;10.79;100.00;100634.44;5007163;28;20034;-90
2020/12/23 10:00:40;;;;;;;;;;;;;;;10.77;100.00;100631.91;5010794;28;20064;-87
2020/12/23 10:03:07;;;;;;;20.83;12.02;;;;;;;10.73;100.00;100621.69;5028191;28;19959;-86
2020/12/23 10:05:32;;;;;;;17.15;10.85;;;;;;;10.74;100.00;100610.78;5027224;28;20053;-85
2020/12/23 10:07:59;;;;;;;19.70;12.65;;;;;;;10.77;100.00;100621.19;5008100;28;20088;-89
2020/12/23 10:10:26;;;;;;;17.30;11.15;;;;;;;10.77;100.00;100615.00;5026673;28;20232;-88
2020/12/23 10:12:51;;;;;;;18.75;11.38;;;;;;;10.79;100.00;100616.50;5021336;28;20049;-89
2020/12/23 10:15:17;;;;;;;16.92;10.55;;;;;;;10.79;100.00;100616.50;5004295;28;20041;-86
2020/12/23 10:17:42;;;;;;;15.85;11.32;;;;;;;10.78;100.00;100604.06;5021147;28;20057;-91
2020/12/23 10:20:08;;;;;;;16.95;11.27;;;;;;;10.78;100.00;100612.13;5007064;28;20486;-87
2020/12/23 10:22:34;;;;;;;15.15;10.38;;;;;;;10.80;100.00;100614.66;5023838;28;20441;-85
2020/12/23 10:25:00;;;;;;;14.02;9.68;;;;;;;10.81;100.00;100610.94;5002552;28;20041;-88
2020/12/23 10:27:26;;;;;;;13.35;9.48;;;;;;;10.79;100.00;100605.75;5010356;28;20040;-88
2020/12/23 10:29:51;;;;;;;13.50;9.48;;;;;;;10.80;100.00;100598.53;5008474;28;20061;-86
2020/12/23 10:32:18;;;;;;;14.30;10.10;;;;;;;10.79;100.00;100597.72;5024314;28;20037;-90
2020/12/23 10:34:44;;;;;;;16.88;10.10;;;;;;;10.80;100.00;100590.50;5028616;28;20484;-90
2020/12/23 10:37:09;;;;;;;14.35;9.45;;;;;;;10.80;100.00;100577.06;5027295;28;20096;-86
2020/12/23 10:39:35;;;;;;;14.07;9.20;;;;;;;10.80;100.00;100582.44;5017899;28;20486;-86
2020/12/23 10:42:00;;;;;;;15.50;9.70;;;;;;;10.80;100.00;100583.25;5001445;28;20053;-88
2020/12/23 10:44:26;;;;;;;16.00;9.82;;;;;;;10.80;100.00;100579.75;5002893;28;20095;-90
2020/12/23 10:46:56;;;;;;;13.48;9.38;;;;;;;10.79;100.00;100567.34;5008746;28;20052;-90
2020/12/23 10:49:25;;;;;;;17.05;10.82;;;;;;;10.79;100.00;100572.72;5022272;28;20050;-91
2020/12/23 10:51:57;;;;;;;14.63;9.77;;;;;;;10.78;100.00;100565.66;4993836;28;20038;-89
2020/12/23 10:54:35;;;;;;;15.05;10.73;;;;;;;10.78;100.00;100557.59;5025042;28;20050;-87
2020/12/23 10:57:00;;;;;;;17.23;11.10;;;;;;;10.78;100.00;100557.59;4992525;28;20045;-86
2020/12/23 10:59:25;;;;;;;16.40;12.15;;;;;;;10.79;100.00;100553.94;5026938;28;20092;-89
2020/12/23 11:01:55;;;;;;;16.00;10.88;;;;;;;10.79;100.00;100543.19;4998328;28;20053;-91
2020/12/23 11:04:21;;;;;;;15.77;10.85;;;;;;;10.79;100.00;100540.50;5028099;28;20106;-87